Time;durP1;ratioP1;P1;durP2;ratioP2;P2;SDS_P1;SDS_P2;PMS_P1;PMS_P2;Temp;Humidity;BMP_temperature;BMP_pressure;BME280_temperature;BME280_humidity;BME280_pressure;Samples;Min_cycle;Max_cycle;Signal;HPM_P1;HPM_P2
2022/08/14 08:04:45;;;;;;;7.32;6.35;;;;;;;24.20;48.38;100740.47;5278687;28;20044;-75
2022/08/14 08:07:16;;;;;;;7.03;6.40;;;;;;;24.40;47.80;100731.81;5291671;28;20124;-76
2022/08/14 08:09:54;;;;;;;7.70;6.43;;;;;;;24.43;47.59;100734.69;5290704;28;20017;-76
2022/08/14 08:12:27;;;;;;;6.35;5.85;;;;;;;24.54;47.47;100731.19;5292686;28;20059;-76
2022/08/14 08:15:00;;;;;;;7.35;5.93;;;;;;;24.58;46.76;100734.88;5285956;28;20032;-76
2022/08/14 08:17:32;;;;;;;7.72;5.95;;;;;;;24.64;46.52;100728.47;5277602;28;20021;-76
2022/08/14 08:20:04;;;;;;;6.70;6.20;;;;;;;24.67;45.89;100724.03;5295757;28;20453;-76
2022/08/14 08:22:37;;;;;;;7.80;5.65;;;;;;;24.83;45.18;100713.28;5295202;28;20075;-76
2022/08/14 08:25:10;;;;;;;6.72;6.22;;;;;;;24.93;44.64;100714.59;5290626;28;20029;-77
2022/08/14 08:27:41;;;;;;;7.95;6.43;;;;;;;24.98;44.90;100710.56;5277508;28;20103;-76
2022/08/14 08:30:13;;;;;;;7.95;6.32;;;;;;;25.14;44.93;100706.25;5294231;28;20074;-76
2022/08/14 08:32:44;;;;;;;6.90;6.30;;;;;;;25.15;43.50;100702.19;5293584;28;20025;-76
2022/08/14 08:35:19;;;;;;;15.05;13.77;;;;;;;25.29;43.83;100706.41;5283834;28;20013;-77
2022/08/14 08:37:53;;;;;;;6.60;6.07;;;;;;;25.33;43.28;100712.91;5277194;28;20020;-76
2022/08/14 08:40:28;;;;;;;6.82;6.13;;;;;;;25.41;43.98;100714.56;5285323;28;20372;-75
2022/08/14 08:42:59;;;;;;;7.50;6.70;;;;;;;25.57;44.28;100722.81;5278527;28;20032;-76
2022/08/14 08:45:33;;;;;;;6.78;6.13;;;;;;;25.59;43.13;100715.53;5282459;28;20040;-77
2022/08/14 08:48:06;;;;;;;6.05;5.55;;;;;;;25.67;42.55;100724.09;5295448;28;20521;-76
2022/08/14 08:50:40;;;;;;;6.47;5.97;;;;;;;25.78;41.33;100717.25;5279978;28;20037;-76
2022/08/14 08:53:12;;;;;;;7.18;6.00;;;;;;;25.99;43.14;100710.09;5261353;28;20025;-76
2022/08/14 08:55:44;;;;;;;7.97;6.40;;;;;;;26.05;43.38;100714.16;5261595;28;20506;-76
2022/08/14 08:58:18;;;;;;;7.00;6.20;;;;;;;26.19;42.26;100708.56;5278901;28;20121;-77
2022/08/14 09:00:53;;;;;;;6.60;6.10;;;;;;;26.24;41.75;100705.34;5282163;28;20076;-78
2022/08/14 09:03:27;;;;;;;7.28;6.55;;;;;;;26.31;41.87;100704.56;5280824;28;20021;-79
2022/08/14 09:06:02;;;;;;;7.55;5.90;;;;;;;26.58;42.36;100707.09;5274022;28;20036;-77
2022/08/14 09:08:34;;;;;;;7.75;6.22;;;;;;;26.61;41.96;100697.75;5274929;28;20492;-77
2022/08/14 09:11:08;;;;;;;11.27;6.50;;;;;;;26.59;41.70;100694.50;5270882;28;20060;-75
2022/08/14 09:13:40;;;;;;;6.72;5.97;;;;;;;26.83;41.69;100695.75;5268719;28;20028;-75
2022/08/14 09:16:11;;;;;;;8.63;6.22;;;;;;;26.88;40.36;100681.13;5259053;28;20104;-76
2022/08/14 09:18:43;;;;;;;6.72;6.13;;;;;;;26.83;40.09;100696.56;5244708;28;20045;-75
2022/08/14 09:21:14;;;;;;;7.40;5.90;;;;;;;26.99;39.34;100687.63;5245599;28;20083;-76
2022/08/14 09:23:46;;;;;;;5.90;5.40;;;;;;;27.10;38.99;100682.75;5261252;28;20104;-77
2022/08/14 09:26:18;;;;;;;6.05;5.47;;;;;;;27.16;39.34;100685.19;5262642;28;20029;-75
2022/08/14 09:28:50;;;;;;;8.25;5.43;;;;;;;27.17;39.67;100684.78;5266176;28;20017;-77
2022/08/14 09:31:23;;;;;;;8.18;5.47;;;;;;;27.22;37.97;100684.38;5267429;28;20032;-76
2022/08/14 09:33:54;;;;;;;5.63;5.13;;;;;;;27.23;38.32;100680.34;5260285;28;20025;-76
2022/08/14 09:36:47;;;;;;;7.53;6.67;;;;;;;27.40;38.23;100677.88;5263139;28;20063;-76
2022/08/14 09:39:48;;;;;;;6.50;5.93;;;;;;;27.48;38.89;100680.31;5265116;28;20275;-76
2022/08/14 09:43:04;;;;;;;11.00;5.63;;;;;;;27.57;39.19;100671.31;5251121;28;20082;-76
2022/08/14 09:45:46;;;;;;;5.35;4.82;;;;;;;27.57;37.50;100662.78;5246637;28;20040;-78
2022/08/14 09:48:22;;;;;;;5.40;5.00;;;;;;;27.59;37.31;100654.66;5262852;28;20039;-77
2022/08/14 09:50:55;;;;;;;6.63;4.85;;;;;;;27.68;38.11;100659.91;5243569;28;20362;-76
2022/08/14 09:53:48;;;;;;;7.05;5.53;;;;;;;27.85;37.46;100659.06;5256675;28;20021;-76
2022/08/14 09:56:19;;;;;;;7.18;4.80;;;;;;;27.93;35.94;100652.09;5246087;28;20059;-81
2022/08/14 09:58:51;;;;;;;5.57;5.07;;;;;;;28.07;36.33;100648.38;5250494;28;20029;-82
2022/08/14 10:01:23;;;;;;;6.15;5.65;;;;;;;28.10;37.91;100647.56;5253344;28;20041;-83
2022/08/14 10:03:56;;;;;;;6.57;5.80;;;;;;;28.21;38.20;100646.69;5253195;28;20021;-78
2022/08/14 10:06:31;;;;;;;6.53;5.93;;;;;;;28.26;38.20;100643.41;5264756;28;20025;-81
2022/08/14 10:09:05;;;;;;;6.30;5.80;;;;;;;28.27;38.01;100640.13;5255770;28;20029;-81
2022/08/14 10:11:38;;;;;;;6.22;5.68;;;;;;;28.28;38.06;100635.25;5246906;28;20041;-81
2022/08/14 10:14:23;;;;;;;6.65;6.15;;;;;;;28.36;38.31;100631.91;5247459;28;20037;-81
2022/08/14 10:16:56;;;;;;;8.98;4.90;;;;;;;28.49;37.45;100629.44;5246789;28;20118;-83
2022/08/14 10:19:29;;;;;;;9.55;5.40;;;;;;;28.50;37.48;100625.31;5243230;28;20476;-77
2022/08/14 10:22:09;;;;;;;5.80;5.30;;;;;;;28.62;37.31;100618.31;5257759;28;20033;-77
2022/08/14 10:24:45;;;;;;;6.00;5.50;;;;;;;28.72;36.21;100616.63;5263253;28;20044;-77
2022/08/14 10:27:24;;;;;;;5.43;4.93;;;;;;;28.69;36.40;100623.97;5259781;28;20056;-75
2022/08/14 10:30:03;;;;;;;6.30;5.70;;;;;;;28.90;36.63;100625.03;5241794;28;20380;-76
2022/08/14 10:32:45;;;;;;;5.90;5.40;;;;;;;28.96;36.95;100612.72;5243332;28;20491;-76
2022/08/14 10:35:21;;;;;;;7.15;5.93;;;;;;;28.92;36.54;100606.25;5256944;28;20489;-75
2022/08/14 10:37:54;;;;;;;5.40;4.95;;;;;;;28.98;36.82;100606.59;5242223;28;20049;-75
2022/08/14 10:40:38;;;;;;;8.80;5.50;;;;;;;29.09;36.12;100600.81;5242604;28;20152;-75
2022/08/14 10:45:56;;;;;;;7.70;6.85;;;;;;;29.30;37.70;100596.91;5412060;22;20406;-78
2022/08/14 10:48:28;;;;;;;6.95;6.32;;;;;;;29.24;37.55;100588.81;5220773;28;20370;-76
2022/08/14 10:50:59;;;;;;;8.38;5.45;;;;;;;29.32;36.51;100595.25;5219343;28;20018;-76
2022/08/14 10:53:36;;;;;;;8.23;6.05;;;;;;;29.27;36.34;100592.88;5220296;28;20029;-79
2022/08/14 10:58:41;;;;;;;6.05;5.55;;;;;;;29.50;36.63;100588.53;5198341;28;20058;-78
2022/08/14 11:01:13;;;;;;;5.00;4.60;;;;;;;29.52;35.66;100578.31;5229253;23;20416;-79
2022/08/14 11:03:44;;;;;;;6.38;5.30;;;;;;;29.77;34.62;100578.03;5241763;28;20029;-78
2022/08/14 11:06:22;;;;;;;5.00;4.60;;;;;;;29.74;33.42;100593.19;5241597;28;20396;-79
2022/08/14 11:08:54;;;;;;;5.00;4.60;;;;;;;29.81;34.32;100592.25;5241512;28;20025;-79
2022/08/14 11:11:26;;;;;;;5.38;4.85;;;;;;;29.72;34.30;100589.94;5241640;28;20230;-79
2022/08/14 11:14:00;;;;;;;6.07;4.80;;;;;;;29.72;33.59;100578.50;5280192;22;20112;-78
2022/08/14 11:16:34;;;;;;;5.47;4.97;;;;;;;29.84;33.90;100580.00;5200513;28;20018;-78
2022/08/14 11:19:06;;;;;;;5.77;5.27;;;;;;;29.98;34.24;100581.84;5280772;23;20053;-77
2022/08/14 11:21:39;;;;;;;5.65;5.05;;;;;;;30.10;33.58;100584.13;5240242;28;20065;-76
2022/08/14 11:24:12;;;;;;;4.93;4.40;;;;;;;30.09;33.80;100573.91;5241575;28;20389;-76
2022/08/14 11:26:44;;;;;;;5.13;4.63;;;;;;;30.20;34.07;100580.28;5241182;28;20032;-76
2022/08/14 11:29:20;;;;;;;7.18;4.40;;;;;;;30.19;33.09;100577.84;5242565;28;20029;-77
2022/08/14 11:31:54;;;;;;;5.63;4.47;;;;;;;30.26;33.12;100578.59;5242090;28;20021;-76
2022/08/14 11:34:28;;;;;;;6.93;4.77;;;;;;;30.33;32.23;100578.47;5239841;28;20019;-77
2022/08/14 11:37:24;;;;;;;4.63;3.92;;;;;;;30.26;32.43;100574.91;5416201;22;20001;-77
2022/08/14 11:40:51;;;;;;;5.07;4.00;;;;;;;30.33;32.54;100571.94;5199334;28;20478;-77
2022/08/14 11:46:31;;;;;;;5.45;4.95;;;;;;;30.61;33.57;100542.06;5199058;28;20285;-78
2022/08/14 11:49:39;;;;;;;5.50;4.88;;;;;;;30.76;31.08;100537.72;5200035;28;20034;-76
2022/08/14 11:55:27;;;;;;;5.70;5.20;;;;;;;30.82;32.20;100531.50;5254767;22;20046;-78
2022/08/14 11:58:08;;;;;;;6.20;5.70;;;;;;;30.91;33.15;100531.72;5198958;28;20065;-78
2022/08/14 12:00:52;;;;;;;9.23;4.47;;;;;;;30.87;32.02;100514.63;5199343;28;20021;-79
2022/08/14 12:03:44;;;;;;;5.20;4.75;;;;;;;31.09;31.33;100511.34;5200160;28;20026;-76
2022/08/14 12:06:18;;;;;;;5.68;5.20;;;;;;;31.07;31.44;100517.53;5199246;28;20040;-75
2022/08/14 12:08:52;;;;;;;4.55;4.15;;;;;;;30.79;31.29;100512.31;5198805;28;20122;-76
2022/08/14 12:11:23;;;;;;;5.32;4.93;;;;;;;30.70;31.40;100516.53;5199821;28;20093;-77
2022/08/14 12:14:07;;;;;;;5.35;4.65;;;;;;;30.67;31.30;100517.41;5200258;28;20031;-77
2022/08/14 12:16:38;;;;;;;5.15;4.20;;;;;;;30.66;31.16;100510.09;5199491;28;20429;-77
2022/08/14 12:19:09;;;;;;;5.32;4.28;;;;;;;30.75;31.05;100498.06;5200629;28;20057;-76
2022/08/14 12:21:49;;;;;;;6.47;5.85;;;;;;;30.99;31.37;100501.75;5199203;28;20027;-75
2022/08/14 12:24:27;;;;;;;4.82;4.43;;;;;;;31.11;30.42;100503.94;5200194;28;20022;-75
2022/08/14 12:26:59;;;;;;;4.85;4.45;;;;;;;31.11;30.51;100506.78;5194868;28;20109;-76
2022/08/14 12:29:30;;;;;;;5.47;4.18;;;;;;;31.22;30.36;100494.31;5199124;28;20561;-76
2022/08/14 12:32:05;;;;;;;4.00;3.70;;;;;;;31.30;29.65;100490.06;5200086;28;20109;-77
2022/08/14 12:34:42;;;;;;;4.90;4.55;;;;;;;31.37;29.67;100485.00;5200036;28;20022;-76
2022/08/14 12:37:13;;;;;;;5.03;4.53;;;;;;;31.44;29.45;100478.31;5193203;28;20023;-77
2022/08/14 12:39:44;;;;;;;5.88;4.68;;;;;;;31.29;29.48;100477.78;5179833;28;20030;-76
2022/08/14 12:42:16;;;;;;;5.57;4.93;;;;;;;31.12;29.74;100479.78;5180512;28;20509;-76
2022/08/14 12:44:47;;;;;;;5.35;4.82;;;;;;;31.13;29.35;100464.22;5179286;28;20073;-76
2022/08/14 12:47:27;;;;;;;5.50;4.35;;;;;;;31.40;29.44;100466.16;5199381;28;20026;-77
2022/08/14 12:49:59;;;;;;;4.65;4.18;;;;;;;31.53;29.25;100452.75;5202849;28;20433;-77
2022/08/14 12:52:38;;;;;;;4.70;4.28;;;;;;;31.73;28.82;100443.31;5203453;28;20038;-77
2022/08/14 12:55:15;;;;;;;4.50;4.10;;;;;;;31.78;28.88;100457.91;5202936;28;20034;-75
2022/08/14 12:57:50;;;;;;;5.65;4.20;;;;;;;31.94;27.48;100453.47;5202829;28;20034;-76
2022/08/14 13:00:24;;;;;;;;;;;;;;;32.00;27.48;100452.47;5204462;28;20405;-76
2022/08/14 13:02:55;;;;;;;5.40;4.90;;;;;;;31.59;28.12;100455.91;5203579;28;19976;-76
2022/08/14 13:05:32;;;;;;;6.03;5.05;;;;;;;31.57;27.80;100459.22;5202239;28;20027;-77
2022/08/14 13:08:05;;;;;;;4.32;3.95;;;;;;;31.77;27.61;100444.00;5203497;28;20026;-76
2022/08/14 13:10:37;;;;;;;4.90;4.50;;;;;;;31.78;28.18;100445.66;5202561;28;20481;-76
2022/08/14 13:13:09;;;;;;;4.05;3.75;;;;;;;32.06;27.79;100441.31;5201409;28;20026;-76
2022/08/14 13:15:53;;;;;;;4.95;3.97;;;;;;;32.00;27.00;100441.00;5202630;28;20026;-76
2022/08/14 13:18:26;;;;;;;4.43;4.03;;;;;;;31.87;26.92;100448.69;5202760;28;20453;-76
2022/08/14 13:21:00;;;;;;;4.97;4.47;;;;;;;32.10;26.64;100442.00;5202620;28;20049;-76
2022/08/14 13:23:33;;;;;;;3.92;3.63;;;;;;;32.24;27.10;100438.78;5201943;28;20077;-77
2022/08/14 13:26:06;;;;;;;5.32;4.70;;;;;;;32.16;26.38;100442.28;5201697;28;20102;-76
2022/08/14 13:28:41;;;;;;;4.32;3.50;;;;;;;31.87;26.87;100430.69;5203284;28;20165;-76
2022/08/14 13:31:14;;;;;;;4.40;3.83;;;;;;;32.07;27.09;100430.63;5203299;28;20395;-76
2022/08/14 13:33:48;;;;;;;4.28;3.83;;;;;;;32.38;27.19;100431.84;5201669;28;20027;-77
2022/08/14 13:36:20;;;;;;;5.85;4.47;;;;;;;32.51;26.23;100422.53;5203147;28;20031;-77
2022/08/14 13:38:53;;;;;;;4.65;4.25;;;;;;;32.48;26.35;100425.06;5193289;28;20022;-77
2022/08/14 13:41:26;;;;;;;21.20;19.40;;;;;;;32.78;26.46;100419.34;5202722;28;20042;-77
2022/08/14 13:43:58;;;;;;;4.57;4.15;;;;;;;33.02;26.61;100417.81;5203162;28;20110;-77
2022/08/14 13:46:30;;;;;;;4.85;4.45;;;;;;;32.89;26.68;100408.34;5201347;28;20117;-77
2022/08/14 13:49:03;;;;;;;5.82;5.28;;;;;;;32.95;26.18;100411.47;5202459;28;20367;-78
2022/08/14 13:51:39;;;;;;;6.45;4.68;;;;;;;32.99;26.74;100406.44;5202054;28;20037;-78
2022/08/14 13:54:14;;;;;;;4.80;4.40;;;;;;;33.06;26.35;100407.06;5201006;28;20037;-77
2022/08/14 13:59:50;;;;;;;5.28;4.78;;;;;;;33.19;26.13;100403.41;5227863;23;20054;-79
2022/08/14 14:02:27;;;;;;;7.13;4.72;;;;;;;32.74;26.98;100393.59;5202547;28;20042;-78
2022/08/14 14:05:03;;;;;;;4.82;4.25;;;;;;;32.96;26.81;100395.84;5201226;28;20046;-79
2022/08/14 14:07:35;;;;;;;4.75;4.25;;;;;;;32.94;27.01;100393.44;5215360;23;20493;-78
2022/08/14 14:10:12;;;;;;;4.85;4.35;;;;;;;33.10;26.47;100389.69;5221799;28;20096;-79
2022/08/14 14:12:44;;;;;;;4.57;4.05;;;;;;;33.03;26.37;100389.91;5222463;28;20385;-79
2022/08/14 14:15:18;;;;;;;4.70;4.40;;;;;;;32.90;27.23;100384.94;5221393;28;20034;-77
2022/08/14 14:17:50;;;;;;;;;;;;;;;33.16;26.68;100382.16;5223164;28;20116;-77
2022/08/14 14:20:25;;;;;;;6.93;4.07;;;;;;;32.77;26.23;100381.19;5221879;28;19949;-77
2022/08/14 14:22:57;;;;;;;4.95;4.55;;;;;;;32.63;26.86;100384.50;5221706;28;20393;-77
2022/08/14 14:25:28;;;;;;;4.80;4.40;;;;;;;32.60;26.77;100380.47;5222591;28;20018;-76
2022/08/14 14:28:03;;;;;;;4.72;4.32;;;;;;;32.33;26.58;100377.88;5221373;28;20025;-77
2022/08/14 14:30:41;;;;;;;6.13;4.75;;;;;;;32.38;27.27;100380.22;5218154;28;20022;-76
2022/08/14 14:33:18;;;;;;;7.47;5.50;;;;;;;32.51;26.65;100388.09;5222331;28;20041;-76
2022/08/14 14:35:49;;;;;;;5.05;4.55;;;;;;;32.32;26.43;100379.16;5220679;28;20479;-77
2022/08/14 14:38:24;;;;;;;4.25;3.95;;;;;;;32.54;27.17;100372.84;5212158;28;20030;-76
2022/08/14 14:40:57;;;;;;;4.78;4.38;;;;;;;32.54;26.61;100375.72;5222225;28;20021;-76
2022/08/14 14:43:34;;;;;;;7.53;6.50;;;;;;;32.59;26.85;100372.28;5220847;28;20500;-77
2022/08/14 14:46:07;;;;;;;5.30;4.90;;;;;;;32.45;26.30;100371.41;5221870;28;20458;-77
2022/08/14 14:48:43;;;;;;;4.75;4.35;;;;;;;32.40;26.36;100365.41;5221099;28;20030;-76
2022/08/14 14:51:16;;;;;;;4.45;4.05;;;;;;;32.31;26.45;100368.91;5221109;28;20057;-77
2022/08/14 14:53:47;;;;;;;6.88;5.10;;;;;;;32.29;26.73;100365.72;5222192;28;20041;-76
2022/08/14 14:56:19;;;;;;;4.85;4.45;;;;;;;32.39;26.87;100361.75;5219435;28;20030;-76
2022/08/14 14:58:52;;;;;;;5.53;4.82;;;;;;;32.24;27.27;100363.41;5221153;28;20026;-76
2022/08/14 15:01:23;;;;;;;5.30;4.80;;;;;;;32.18;27.10;100354.50;5221756;28;20553;-77
2022/08/14 15:03:58;;;;;;;5.07;4.68;;;;;;;32.21;27.06;100352.81;5220987;28;20129;-76
2022/08/14 15:06:33;;;;;;;4.78;4.32;;;;;;;32.24;26.64;100351.94;5221532;28;20029;-76
2022/08/14 15:09:04;;;;;;;4.90;4.50;;;;;;;32.15;26.91;100335.34;5239756;28;20057;-76
2022/08/14 15:11:35;;;;;;;5.68;4.30;;;;;;;31.99;26.66;100341.91;5241109;28;20026;-76
2022/08/14 15:14:07;;;;;;;7.28;4.45;;;;;;;32.08;26.79;100340.47;5241770;28;20060;-76
2022/08/14 15:16:38;;;;;;;6.68;4.82;;;;;;;32.00;26.99;100343.53;5242245;28;20090;-77
2022/08/14 15:19:10;;;;;;;5.65;4.43;;;;;;;31.92;26.97;100330.59;5240990;28;20029;-77
2022/08/14 15:21:41;;;;;;;6.43;4.32;;;;;;;31.88;27.25;100335.63;5241335;28;20033;-76
2022/08/14 15:24:14;;;;;;;5.93;5.20;;;;;;;31.88;27.81;100332.78;5238915;28;20091;-76
2022/08/14 15:26:45;;;;;;;5.65;4.68;;;;;;;31.86;28.24;100329.53;5241736;28;20469;-77
2022/08/14 15:29:16;;;;;;;5.30;4.90;;;;;;;31.78;28.40;100330.97;5242101;28;20021;-76
2022/08/14 15:31:48;;;;;;;4.97;4.57;;;;;;;31.86;28.39;100332.41;5241286;28;20021;-76
2022/08/14 15:34:20;;;;;;;5.07;4.65;;;;;;;31.88;28.22;100321.31;5241173;28;20025;-75
2022/08/14 15:36:51;;;;;;;5.20;4.68;;;;;;;31.85;27.89;100325.03;5241237;28;20550;-76
2022/08/14 15:39:22;;;;;;;6.10;5.50;;;;;;;31.85;28.19;100319.31;5240863;28;20037;-76
2022/08/14 15:41:55;;;;;;;5.47;4.90;;;;;;;31.77;28.10;100321.56;5241423;28;20021;-76
2022/08/14 15:44:27;;;;;;;4.50;3.90;;;;;;;31.71;28.68;100326.22;5241760;28;20112;-76
2022/08/14 15:46:59;;;;;;;5.25;4.80;;;;;;;31.76;28.55;100316.28;5240641;28;20025;-76
2022/08/14 15:49:30;;;;;;;6.63;4.72;;;;;;;31.71;28.65;100317.63;5241348;28;20052;-76
2022/08/14 15:52:05;;;;;;;5.40;4.90;;;;;;;31.71;28.21;100320.50;5241349;28;20021;-76
2022/08/14 15:54:37;;;;;;;6.68;4.38;;;;;;;31.65;28.79;100319.44;5241265;28;20269;-75
2022/08/14 15:57:09;;;;;;;4.90;4.53;;;;;;;31.60;28.89;100309.31;5241574;28;20100;-75
2022/08/14 16:02:29;;;;;;;7.10;4.47;;;;;;;31.54;28.75;100316.00;5241439;28;20117;-74
2022/08/14 16:05:01;;;;;;;4.85;4.25;;;;;;;31.52;28.05;100307.88;5241144;28;20524;-75
2022/08/14 16:07:32;;;;;;;6.53;4.68;;;;;;;31.50;29.07;100309.59;5240801;28;20446;-76
2022/08/14 16:10:04;;;;;;;7.57;6.88;;;;;;;31.42;28.75;100300.31;5240480;28;20124;-76
2022/08/14 16:12:35;;;;;;;5.68;4.68;;;;;;;31.37;28.50;100303.69;5240923;28;20035;-75
2022/08/14 16:15:10;;;;;;;4.82;4.43;;;;;;;31.51;28.50;100288.25;5240312;28;20020;-75
2022/08/14 16:17:41;;;;;;;;;;;;;;;31.68;28.47;100294.81;5244434;28;20022;-74
2022/08/14 16:20:13;;;;;;;4.70;4.30;;;;;;;31.77;28.21;100300.69;5243616;28;19931;-75
2022/08/14 16:22:45;;;;;;;5.07;4.40;;;;;;;31.78;28.01;100293.72;5243680;28;20030;-73
2022/08/14 16:25:17;;;;;;;4.97;4.57;;;;;;;31.71;28.95;100291.03;5245834;28;20022;-74
2022/08/14 16:27:52;;;;;;;5.10;4.70;;;;;;;31.61;28.47;100287.19;5244396;28;20037;-75
2022/08/14 16:30:23;;;;;;;4.90;4.50;;;;;;;31.56;28.87;100282.78;5243422;28;20029;-74
2022/08/14 16:32:58;;;;;;;4.63;4.30;;;;;;;31.47;28.24;100294.09;5244772;28;20143;-74
2022/08/14 16:35:37;;;;;;;6.28;5.00;;;;;;;31.51;28.09;100286.19;5244304;28;20033;-74
2022/08/14 16:38:09;;;;;;;5.82;5.32;;;;;;;31.41;28.20;100278.66;5423409;23;20643;-74
2022/08/14 16:40:42;;;;;;;4.97;4.38;;;;;;;31.32;28.76;100276.41;5286423;28;20028;-74
2022/08/14 16:43:14;;;;;;;10.70;5.05;;;;;;;31.31;28.79;100274.78;5278385;28;20029;-74
2022/08/14 16:45:47;;;;;;;5.70;5.30;;;;;;;31.31;29.24;100279.72;5279617;28;20070;-75
2022/08/14 16:48:21;;;;;;;5.45;4.00;;;;;;;31.44;29.57;100274.09;5287480;28;20399;-74
2022/08/14 16:50:53;;;;;;;5.63;5.07;;;;;;;31.44;29.64;100272.03;5287669;28;20111;-74
2022/08/14 16:53:24;;;;;;;5.43;4.93;;;;;;;31.39;29.11;100270.50;5288887;28;20116;-75
2022/08/14 16:56:17;;;;;;;5.03;4.60;;;;;;;31.39;29.58;100263.97;5284003;28;20028;-74
2022/08/14 16:59:05;;;;;;;4.93;4.53;;;;;;;31.37;29.38;100264.41;5286868;28;20029;-74
2022/08/14 17:01:40;;;;;;;5.65;3.97;;;;;;;31.26;30.06;100261.00;5275703;28;20064;-75
2022/08/14 17:04:13;;;;;;;6.30;4.68;;;;;;;31.35;29.63;100254.66;5284868;28;20020;-75
2022/08/14 17:06:51;;;;;;;5.72;5.22;;;;;;;31.31;29.82;100249.00;5286419;28;20020;-75
2022/08/14 17:09:37;;;;;;;6.85;5.07;;;;;;;31.25;30.04;100247.13;5294615;28;20382;-74
2022/08/14 17:12:27;;;;;;;5.25;4.75;;;;;;;31.17;30.66;100253.03;5371288;23;20056;-75
2022/08/14 17:15:13;;;;;;;5.40;4.93;;;;;;;31.12;30.64;100250.69;5284130;28;20107;-75
2022/08/14 17:17:48;;;;;;;5.43;4.78;;;;;;;31.00;30.30;100251.41;5283587;28;20091;-74
2022/08/14 17:20:24;;;;;;;6.15;5.65;;;;;;;31.03;30.58;100244.78;5285561;28;20055;-74
2022/08/14 17:22:58;;;;;;;;;;;;;;;31.10;30.74;100240.94;5284774;28;20024;-74
2022/08/14 17:25:35;;;;;;;8.18;5.22;;;;;;;30.94;30.79;100244.59;5285317;28;20363;-73
2022/08/14 17:28:22;;;;;;;6.47;5.88;;;;;;;30.94;31.22;100244.59;5285702;28;20024;-74
2022/08/14 17:30:56;;;;;;;5.82;5.32;;;;;;;30.89;31.34;100242.25;5284197;28;20077;-74
